Time;durP1;ratioP1;P1;durP2;ratioP2;P2;SDS_P1;SDS_P2;PMS_P1;PMS_P2;Temp;Humidity;BMP_temperature;BMP_pressure;BME280_temperature;BME280_humidity;BME280_pressure;Samples;Min_cycle;Max_cycle;Signal;HPM_P1;HPM_P2
2023/08/14 00:01:29;;;;;;;6.03;2.50;;;;;;;19.62;71.43;101666.13;7395569;19;20018;-59
2023/08/14 00:03:56;;;;;;;6.70;3.00;;;;;;;19.59;71.22;101655.66;7396399;19;20019;-58
2023/08/14 00:06:24;;;;;;;10.48;3.30;;;;;;;19.58;71.09;101672.78;7397342;19;20029;-59
2023/08/14 00:08:51;;;;;;;8.57;3.03;;;;;;;19.56;71.47;101669.38;7397175;19;20015;-59
2023/08/14 00:11:19;;;;;;;7.57;2.63;;;;;;;19.50;71.69;101673.53;7396579;19;20015;-60
2023/08/14 00:13:55;;;;;;;7.18;2.83;;;;;;;19.52;71.68;101670.69;7396954;19;20020;-59
2023/08/14 00:16:24;;;;;;;8.18;3.10;;;;;;;19.38;71.88;101669.31;7397130;19;20022;-59
2023/08/14 00:18:53;;;;;;;8.10;2.70;;;;;;;19.08;73.24;101668.59;7396339;19;20393;-60
2023/08/14 00:21:22;;;;;;;8.77;3.35;;;;;;;19.04;73.38;101661.81;7396360;19;20025;-59
2023/08/14 00:23:49;;;;;;;6.60;2.90;;;;;;;19.18;73.10;101666.69;7397167;19;20055;-59
2023/08/14 00:26:17;;;;;;;8.10;3.00;;;;;;;19.12;73.14;101669.16;7394610;19;20023;-59
2023/08/14 00:28:44;;;;;;;9.65;3.28;;;;;;;18.95;74.29;101670.75;7397191;19;20032;-59
2023/08/14 00:31:12;;;;;;;8.15;3.05;;;;;;;19.07;73.49;101664.19;7395368;19;20022;-59
2023/08/14 00:33:39;;;;;;;8.40;3.25;;;;;;;19.16;73.17;101657.97;7400459;19;20064;-59
2023/08/14 00:36:06;;;;;;;8.27;2.97;;;;;;;19.16;72.62;101662.50;7395301;19;20018;-59
2023/08/14 00:38:34;;;;;;;7.60;3.05;;;;;;;19.13;72.56;101668.16;7396826;19;20014;-59
2023/08/14 00:41:01;;;;;;;11.38;3.03;;;;;;;18.96;73.20;101667.94;7395702;19;20374;-59
2023/08/14 00:43:29;;;;;;;7.85;3.00;;;;;;;19.04;72.78;101669.00;7395157;19;20049;-59
2023/08/14 00:45:57;;;;;;;8.05;3.20;;;;;;;18.97;73.28;101663.41;7396893;19;20090;-59
2023/08/14 00:48:25;;;;;;;9.32;3.42;;;;;;;19.05;73.12;101668.03;7398840;19;20077;-60
2023/08/14 00:50:53;;;;;;;7.75;2.72;;;;;;;19.11;72.70;101670.13;7395968;19;20022;-60
2023/08/14 00:53:24;;;;;;;8.55;3.20;;;;;;;19.01;72.62;101670.16;7395802;19;20019;-62
2023/08/14 00:55:53;;;;;;;7.72;3.15;;;;;;;18.84;73.99;101665.53;7396438;19;20011;-62
2023/08/14 00:58:22;;;;;;;7.15;3.20;;;;;;;18.84;73.46;101665.53;7398316;19;20455;-60
2023/08/14 01:00:50;;;;;;;7.00;2.72;;;;;;;18.88;73.45;101667.78;7396242;19;20487;-62
2023/08/14 01:03:20;;;;;;;8.88;3.33;;;;;;;18.63;74.22;101668.38;7398334;19;20024;-56
2023/08/14 01:05:47;;;;;;;6.90;3.15;;;;;;;18.56;74.63;101665.41;7396566;19;20014;-59
2023/08/14 01:08:14;;;;;;;8.75;2.83;;;;;;;18.62;74.53;101667.53;7395098;19;20022;-59
2023/08/14 01:13:30;;;;;;;9.45;2.97;;;;;;;18.63;74.72;101666.53;7396234;19;20360;-55
2023/08/14 01:16:03;;;;;;;7.97;3.33;;;;;;;18.81;74.17;101671.19;7395197;19;20011;-57
2023/08/14 01:18:33;;;;;;;7.35;2.60;;;;;;;18.75;74.10;101670.78;7395184;19;20510;-60
2023/08/14 01:21:08;;;;;;;6.93;3.22;;;;;;;18.59;75.16;101675.03;7394132;19;20098;-60
2023/08/14 01:24:00;;;;;;;8.32;3.25;;;;;;;18.52;74.98;101664.00;7396394;19;20007;-58
2023/08/14 01:26:28;;;;;;;6.30;2.78;;;;;;;18.55;75.07;101668.25;7395429;19;20014;-59
2023/08/14 01:28:56;;;;;;;8.63;3.08;;;;;;;18.70;74.29;101675.75;7396792;19;20026;-59
2023/08/14 01:31:24;;;;;;;6.20;2.95;;;;;;;18.77;74.05;101667.94;7395717;19;20023;-59
2023/08/14 01:33:51;;;;;;;6.72;2.90;;;;;;;18.74;74.12;101666.41;7395632;19;20025;-59
2023/08/14 01:36:40;;;;;;;9.55;3.10;;;;;;;18.80;73.50;101672.19;7394964;19;20032;-58
2023/08/14 01:39:09;;;;;;;6.88;2.80;;;;;;;18.70;73.75;101669.50;7395250;19;20481;-60
2023/08/14 01:41:42;;;;;;;7.72;3.08;;;;;;;18.79;73.80;101679.38;7394215;19;20086;-57
2023/08/14 01:44:14;;;;;;;6.57;2.90;;;;;;;18.75;73.51;101675.31;7395647;19;20022;-59
2023/08/14 01:46:43;;;;;;;7.00;3.13;;;;;;;18.70;73.63;101677.56;7395552;19;20073;-58
2023/08/14 01:49:14;;;;;;;8.95;3.40;;;;;;;18.69;73.88;101670.47;7395391;19;20047;-59
2023/08/14 01:51:42;;;;;;;8.40;3.15;;;;;;;18.70;73.55;101669.50;7394850;19;20039;-59
2023/08/14 01:54:10;;;;;;;6.93;3.08;;;;;;;18.63;74.00;101661.16;7396119;19;20019;-61
2023/08/14 01:56:37;;;;;;;7.60;3.08;;;;;;;18.63;73.75;101663.84;7394767;19;20011;-57
2023/08/14 01:59:04;;;;;;;8.00;2.95;;;;;;;18.62;74.03;101664.84;7394127;19;20011;-58
2023/08/14 02:01:32;;;;;;;8.27;3.40;;;;;;;18.58;73.90;101665.25;7393989;19;20043;-61
2023/08/14 02:03:59;;;;;;;6.80;3.10;;;;;;;18.40;74.45;101666.00;7394551;19;20086;-59
2023/08/14 02:06:27;;;;;;;6.32;2.97;;;;;;;18.42;74.54;101664.00;7394121;19;20018;-60
2023/08/14 02:08:55;;;;;;;6.05;2.85;;;;;;;18.40;74.19;101654.41;7392632;19;20006;-59
2023/08/14 02:11:22;;;;;;;9.23;3.45;;;;;;;18.41;74.45;101656.09;7391908;19;20342;-59
2023/08/14 02:13:49;;;;;;;8.25;3.10;;;;;;;18.41;74.65;101653.41;7392360;19;20025;-56
2023/08/14 02:16:17;;;;;;;6.22;3.17;;;;;;;18.47;74.16;101648.34;7394196;19;20489;-55
2023/08/14 02:18:44;;;;;;;8.90;2.80;;;;;;;18.44;74.06;101655.81;7394715;19;20367;-58
2023/08/14 02:21:12;;;;;;;9.60;3.05;;;;;;;18.21;74.80;101652.59;7392615;19;20092;-59
2023/08/14 02:23:39;;;;;;;7.35;3.30;;;;;;;17.97;76.29;101650.28;7392251;19;20026;-59
2023/08/14 02:26:08;;;;;;;5.85;3.15;;;;;;;17.91;76.50;101648.19;7390952;19;20475;-59
2023/08/14 02:28:35;;;;;;;9.98;3.50;;;;;;;18.12;75.49;101648.88;7394090;19;20006;-57
2023/08/14 02:31:04;;;;;;;6.93;2.80;;;;;;;18.24;75.19;101641.59;7393220;19;20085;-58
2023/08/14 02:33:31;;;;;;;7.63;3.13;;;;;;;18.29;75.10;101652.72;7393732;19;20089;-60
2023/08/14 02:35:59;;;;;;;10.40;3.55;;;;;;;18.27;74.88;101654.69;7392751;19;20025;-59
2023/08/14 02:38:26;;;;;;;7.75;3.00;;;;;;;18.29;74.77;101651.88;7394605;19;20017;-56
2023/08/14 02:40:53;;;;;;;4.43;2.75;;;;;;;18.21;74.30;101637.34;7390395;19;20007;-57
2023/08/14 02:43:21;;;;;;;6.75;2.88;;;;;;;18.23;74.60;101640.72;7393299;19;20014;-57
2023/08/14 02:45:48;;;;;;;5.78;2.90;;;;;;;18.25;74.42;101641.44;7393811;19;20424;-57
2023/08/14 02:48:16;;;;;;;9.73;3.63;;;;;;;17.82;75.65;101625.75;7392731;19;20021;-53
2023/08/14 02:50:43;;;;;;;7.90;3.30;;;;;;;17.74;76.42;101633.56;7392558;19;20018;-53
2023/08/14 02:53:10;;;;;;;6.63;3.08;;;;;;;17.96;75.60;101632.53;7391951;19;20028;-55
2023/08/14 02:55:38;;;;;;;7.97;2.90;;;;;;;18.05;75.17;101631.69;7391421;19;20040;-55
2023/08/14 02:58:05;;;;;;;8.38;3.53;;;;;;;18.09;75.00;101630.44;7390614;19;20386;-56
2023/08/14 03:00:32;;;;;;;7.05;3.28;;;;;;;18.14;74.26;101627.31;7391136;19;20028;-53
2023/08/14 03:03:00;;;;;;;7.07;3.15;;;;;;;17.98;74.79;101638.59;7390218;19;20356;-58
2023/08/14 03:05:27;;;;;;;6.78;3.30;;;;;;;17.66;76.29;101634.25;7391447;19;20022;-58
2023/08/14 03:07:55;;;;;;;6.22;2.80;;;;;;;17.76;76.15;101637.84;7391747;19;20022;-58
2023/08/14 03:10:22;;;;;;;8.50;3.55;;;;;;;17.93;75.37;101636.34;7391809;19;20018;-58
2023/08/14 03:12:50;;;;;;;6.55;2.78;;;;;;;18.01;75.18;101641.84;7390741;19;20014;-57
2023/08/14 03:15:17;;;;;;;8.57;2.92;;;;;;;18.02;74.51;101637.34;7391398;19;20019;-59
2023/08/14 03:17:45;;;;;;;8.90;3.35;;;;;;;18.06;74.13;101630.69;7391175;19;20036;-60
2023/08/14 03:20:13;;;;;;;6.68;3.28;;;;;;;18.02;74.40;101630.13;7390826;19;20022;-59
2023/08/14 03:22:41;;;;;;;7.15;3.00;;;;;;;17.92;74.38;101628.44;7390181;19;20022;-57
2023/08/14 03:25:08;;;;;;;6.70;2.75;;;;;;;17.91;74.50;101635.63;7389333;19;20018;-57
2023/08/14 03:27:36;;;;;;;7.53;2.92;;;;;;;17.92;74.05;101626.59;7390915;19;20014;-59
2023/08/14 03:30:04;;;;;;;6.40;2.80;;;;;;;17.92;74.29;101628.44;7389579;19;20081;-59
2023/08/14 03:32:33;;;;;;;5.47;2.80;;;;;;;17.90;74.67;101625.91;7389868;19;20022;-59
2023/08/14 03:35:00;;;;;;;10.82;3.47;;;;;;;17.91;74.25;101638.31;7399848;19;20037;-58
2023/08/14 03:37:28;;;;;;;5.78;3.20;;;;;;;17.72;75.14;101639.09;7404406;19;20017;-59
2023/08/14 03:39:56;;;;;;;9.15;3.35;;;;;;;17.51;76.09;101641.00;7404612;19;20018;-59
2023/08/14 03:42:23;;;;;;;8.10;3.30;;;;;;;17.38;76.93;101635.03;7403558;19;20039;-57
2023/08/14 03:44:50;;;;;;;8.70;3.10;;;;;;;17.60;76.54;101637.50;7403992;19;20010;-57
2023/08/14 03:47:18;;;;;;;7.68;3.45;;;;;;;17.73;75.75;101632.72;7402927;19;20035;-57
2023/08/14 03:49:45;;;;;;;6.68;3.40;;;;;;;17.84;75.16;101645.19;7405103;19;20026;-57
2023/08/14 03:52:12;;;;;;;7.38;3.30;;;;;;;17.91;75.04;101638.31;7400479;19;20047;-58
2023/08/14 03:54:40;;;;;;;6.47;3.00;;;;;;;17.90;75.12;101638.44;7404828;19;20023;-58
2023/08/14 03:57:08;;;;;;;8.27;3.20;;;;;;;17.85;74.64;101635.31;7403846;19;20022;-58
2023/08/14 03:59:35;;;;;;;8.73;3.53;;;;;;;17.85;74.78;101643.38;7408134;19;20089;-58
2023/08/14 04:02:02;;;;;;;4.95;3.03;;;;;;;17.81;74.99;101628.53;7401566;19;20073;-58
2023/08/14 04:04:30;;;;;;;7.07;2.97;;;;;;;17.75;74.35;101629.97;7405101;19;20018;-57
2023/08/14 04:06:58;;;;;;;9.48;3.60;;;;;;;17.74;74.29;101625.53;7404070;19;20018;-58
2023/08/14 04:09:27;;;;;;;5.88;3.45;;;;;;;17.72;74.37;101624.84;7404175;19;20378;-58
2023/08/14 04:11:54;;;;;;;7.65;3.28;;;;;;;17.76;74.29;101627.13;7401840;19;20472;-58
2023/08/14 04:14:23;;;;;;;8.98;3.38;;;;;;;17.59;75.46;101626.91;7404294;19;20014;-58
2023/08/14 04:16:50;;;;;;;7.20;3.30;;;;;;;17.60;75.55;101623.28;7404255;19;20022;-58
2023/08/14 04:19:19;;;;;;;6.47;3.08;;;;;;;17.70;74.90;101630.31;7404274;19;20011;-58
2023/08/14 04:21:46;;;;;;;5.22;2.90;;;;;;;17.73;75.14;101635.41;7401927;19;20019;-58
2023/08/14 04:24:13;;;;;;;6.80;3.45;;;;;;;17.73;75.33;101630.06;7402152;19;20019;-57
2023/08/14 04:26:41;;;;;;;7.22;3.45;;;;;;;17.74;75.21;101631.78;7403047;19;20047;-58
2023/08/14 04:29:09;;;;;;;6.40;3.08;;;;;;;17.81;75.15;101626.72;7404250;19;20022;-57
2023/08/14 04:31:38;;;;;;;5.65;3.05;;;;;;;17.82;75.03;101628.44;7403165;19;20051;-58
2023/08/14 04:34:06;;;;;;;7.20;3.13;;;;;;;17.81;74.82;101623.19;7404142;19;20014;-58
2023/08/14 04:36:35;;;;;;;6.03;2.90;;;;;;;17.87;74.52;101628.84;7403031;19;20039;-58
2023/08/14 04:39:04;;;;;;;8.05;2.75;;;;;;;17.85;74.65;101622.75;7403223;19;20014;-58
2023/08/14 04:41:31;;;;;;;9.38;3.25;;;;;;;17.80;74.84;101632.22;7401506;19;20022;-57
2023/08/14 04:43:58;;;;;;;6.85;3.40;;;;;;;17.49;75.99;101622.38;7403568;19;20498;-58
2023/08/14 04:46:30;;;;;;;9.07;3.70;;;;;;;17.36;76.47;101621.81;7396276;19;20093;-58
2023/08/14 04:49:07;;;;;;;9.38;3.60;;;;;;;17.58;76.60;101631.44;7396810;19;20388;-58
2023/08/14 04:51:35;;;;;;;10.48;3.58;;;;;;;17.79;75.66;101617.97;7394635;19;20014;-58
2023/08/14 04:54:02;;;;;;;7.78;3.60;;;;;;;17.91;75.20;101618.69;7396414;19;20798;-57
2023/08/14 04:56:31;;;;;;;9.77;3.85;;;;;;;17.94;75.11;101621.09;7395217;19;20102;-57
2023/08/14 04:58:58;;;;;;;9.07;3.65;;;;;;;17.97;74.78;101620.81;7398972;19;20018;-58
2023/08/14 05:01:25;;;;;;;8.15;3.40;;;;;;;17.95;74.67;101618.28;7394128;19;20106;-57
2023/08/14 05:03:53;;;;;;;10.50;3.40;;;;;;;18.04;74.65;101632.66;7396326;19;20022;-57
2023/08/14 05:06:20;;;;;;;10.25;4.38;;;;;;;18.05;74.43;101620.09;7395140;19;20031;-59
2023/08/14 05:08:47;;;;;;;10.18;3.92;;;;;;;18.05;74.54;101620.97;7395900;19;20019;-57
2023/08/14 05:11:14;;;;;;;10.77;4.05;;;;;;;17.99;74.26;101614.31;7395274;19;20031;-58
2023/08/14 05:13:44;;;;;;;12.00;4.40;;;;;;;17.71;75.63;101613.28;7396268;19;20028;-58
2023/08/14 05:16:12;;;;;;;7.80;3.72;;;;;;;17.69;75.95;101625.13;7395222;19;20044;-58
2023/08/14 05:18:39;;;;;;;7.80;3.70;;;;;;;17.63;76.52;101625.66;7395018;19;20018;-60
2023/08/14 05:21:06;;;;;;;11.50;3.58;;;;;;;17.74;76.26;101617.50;7392781;19;20043;-59
2023/08/14 05:23:34;;;;;;;8.13;3.50;;;;;;;17.76;76.00;101618.25;7395450;19;20059;-60
2023/08/14 05:26:01;;;;;;;9.27;4.03;;;;;;;17.73;76.58;101621.16;7394732;19;20022;-59
2023/08/14 05:28:29;;;;;;;7.13;3.90;;;;;;;17.71;76.69;101628.50;7395625;19;20015;-60
2023/08/14 05:30:56;;;;;;;8.18;3.85;;;;;;;17.75;76.87;101636.16;7394518;19;20018;-59
2023/08/14 05:33:23;;;;;;;9.70;4.22;;;;;;;17.82;76.66;101632.91;7394357;19;20026;-60
2023/08/14 05:35:51;;;;;;;8.52;3.40;;;;;;;17.89;76.80;101629.53;7393683;19;20387;-60
2023/08/14 05:38:18;;;;;;;7.80;3.58;;;;;;;17.92;77.32;101633.78;7394809;19;20023;-58
2023/08/14 05:40:45;;;;;;;9.63;4.03;;;;;;;18.03;77.46;101637.19;7394017;19;20028;-59
2023/08/14 05:43:13;;;;;;;7.72;3.88;;;;;;;18.26;76.37;101651.16;7394693;19;20081;-58
2023/08/14 05:45:45;;;;;;;8.60;4.32;;;;;;;18.34;76.24;101645.09;7393780;19;20047;-59
2023/08/14 05:48:14;;;;;;;9.75;4.18;;;;;;;18.23;76.48;101643.38;7393411;19;20022;-58
2023/08/14 05:50:41;;;;;;;9.95;4.13;;;;;;;18.17;76.73;101649.34;7394737;19;20032;-59
2023/08/14 05:53:09;;;;;;;11.70;4.80;;;;;;;18.15;77.38;101643.25;7394737;19;20059;-59
2023/08/14 05:55:41;;;;;;;7.65;4.25;;;;;;;18.40;76.58;101651.72;7393645;19;20035;-59
2023/08/14 05:58:08;;;;;;;12.00;4.65;;;;;;;18.56;75.88;101643.94;7394922;19;20316;-57
2023/08/14 06:00:38;;;;;;;9.18;3.85;;;;;;;18.67;75.48;101649.16;7393342;19;20022;-57
2023/08/14 06:03:08;;;;;;;7.63;4.30;;;;;;;18.72;75.79;101646.06;7394275;19;20010;-59
2023/08/14 06:05:36;;;;;;;7.85;4.00;;;;;;;18.71;76.21;101644.38;7392957;19;20021;-60
2023/08/14 06:08:04;;;;;;;8.43;4.55;;;;;;;18.73;76.26;101642.38;7393721;19;20044;-61
2023/08/14 06:10:32;;;;;;;9.73;4.40;;;;;;;18.65;76.64;101639.56;7393990;19;20018;-60
2023/08/14 06:12:59;;;;;;;8.10;4.20;;;;;;;18.78;76.68;101639.28;7391167;19;20035;-60
2023/08/14 06:15:27;;;;;;;11.25;4.65;;;;;;;18.88;76.06;101640.09;7392521;19;20023;-57
2023/08/14 06:17:54;;;;;;;12.23;5.20;;;;;;;18.86;76.30;101645.63;7392948;19;20044;-58
2023/08/14 06:20:22;;;;;;;7.95;4.20;;;;;;;18.90;76.09;101641.66;7392058;19;20034;-57
2023/08/14 06:22:49;;;;;;;10.13;4.03;;;;;;;18.97;76.07;101644.59;7391691;19;20140;-57
2023/08/14 06:25:18;;;;;;;9.52;4.28;;;;;;;19.08;76.17;101648.94;7392880;19;20537;-58
2023/08/14 06:27:45;;;;;;;7.80;4.35;;;;;;;19.12;76.24;101651.19;7392765;19;20082;-56
2023/08/14 06:30:14;;;;;;;8.15;3.83;;;;;;;19.26;75.75;101644.47;7393052;19;20026;-57
2023/08/14 06:32:42;;;;;;;7.63;3.80;;;;;;;19.29;75.90;101649.56;7389958;19;20032;-56
2023/08/14 06:35:09;;;;;;;10.02;4.18;;;;;;;19.34;75.65;101646.44;7393420;19;20018;-57
2023/08/14 06:37:36;;;;;;;9.43;3.78;;;;;;;19.38;75.52;101648.66;7392576;19;20060;-57
2023/08/14 06:40:04;;;;;;;8.60;3.60;;;;;;;19.42;75.24;101647.41;7391142;19;20018;-57
2023/08/14 06:42:32;;;;;;;7.72;3.40;;;;;;;19.50;75.05;101643.97;7390825;19;20090;-57
2023/08/14 06:44:59;;;;;;;9.80;3.20;;;;;;;19.57;75.07;101652.25;7392355;19;20495;-57
2023/08/14 06:47:26;;;;;;;7.60;3.10;;;;;;;19.66;74.81;101644.19;7391827;19;20018;-57
2023/08/14 06:49:54;;;;;;;9.50;3.47;;;;;;;19.77;74.74;101645.81;7392506;19;20018;-57
2023/08/14 06:52:21;;;;;;;7.95;3.17;;;;;;;19.90;74.98;101643.59;7389189;19;20378;-57
2023/08/14 06:54:48;;;;;;;9.48;3.25;;;;;;;19.96;74.56;101637.63;7392325;19;20518;-57
2023/08/14 06:57:16;;;;;;;5.05;2.70;;;;;;;19.97;74.86;101641.16;7392001;19;20018;-58
2023/08/14 06:59:43;;;;;;;11.35;2.88;;;;;;;20.00;74.22;101635.47;7396047;19;20394;-57
2023/08/14 07:02:12;;;;;;;9.00;2.83;;;;;;;20.09;74.25;101631.00;7391351;19;20045;-57
2023/08/14 07:04:40;;;;;;;7.38;2.75;;;;;;;20.17;73.77;101631.09;7392232;19;20074;-57
2023/08/14 07:07:07;;;;;;;10.52;2.78;;;;;;;20.27;73.37;101634.53;7390636;19;20055;-57
2023/08/14 07:09:35;;;;;;;11.00;2.80;;;;;;;20.36;72.66;101622.84;7388759;19;20011;-57
2023/08/14 07:12:02;;;;;;;8.73;2.58;;;;;;;20.39;72.40;101602.84;7390282;19;20127;-58
2023/08/14 07:14:31;;;;;;;9.95;2.63;;;;;;;20.56;71.88;101626.22;7390243;19;20019;-59
2023/08/14 07:16:58;;;;;;;11.38;2.78;;;;;;;20.61;71.39;101625.78;7389812;19;20508;-58
2023/08/14 07:19:25;;;;;;;9.57;2.80;;;;;;;20.63;71.50;101621.91;7391462;19;20018;-59
2023/08/14 07:21:53;;;;;;;9.55;2.38;;;;;;;20.63;71.45;101613.81;7390249;19;20019;-59
2023/08/14 07:24:20;;;;;;;12.02;2.45;;;;;;;20.60;71.91;101600.66;7390048;19;20043;-58
2023/08/14 07:26:47;;;;;;;9.55;2.58;;;;;;;20.65;72.01;101601.06;7390761;19;20015;-60
2023/08/14 07:29:15;;;;;;;17.83;2.85;;;;;;;20.68;71.38;101607.97;7390287;19;20032;-61
2023/08/14 07:31:46;;;;;;;8.00;2.53;;;;;;;20.64;70.52;101609.28;7390888;19;20014;-61
2023/08/14 07:34:13;;;;;;;15.43;3.22;;;;;;;20.62;70.74;101620.22;7390838;19;20026;-61
2023/08/14 07:36:40;;;;;;;9.18;2.22;;;;;;;20.65;71.13;101630.69;7391076;19;20042;-59
2023/08/14 07:39:08;;;;;;;10.00;2.70;;;;;;;20.71;70.86;101633.72;7390088;19;20094;-61
2023/08/14 07:41:35;;;;;;;9.13;2.28;;;;;;;20.76;69.67;101639.47;7389008;19;20022;-60
2023/08/14 07:44:03;;;;;;;9.98;2.20;;;;;;;20.75;69.93;101635.09;7391299;19;20019;-60
2023/08/14 07:46:30;;;;;;;7.03;2.30;;;;;;;20.76;69.51;101653.81;7390662;19;20019;-60
2023/08/14 07:48:57;;;;;;;10.20;2.40;;;;;;;20.77;69.19;101651.94;7390779;19;20025;-56
2023/08/14 07:51:25;;;;;;;9.23;2.40;;;;;;;20.76;69.12;101653.81;7390290;19;20335;-57
2023/08/14 07:53:53;;;;;;;4.90;1.75;;;;;;;20.81;69.04;101656.03;7390904;19;20011;-57
2023/08/14 07:56:20;;;;;;;7.65;2.00;;;;;;;20.84;67.80;101655.72;7388773;19;20042;-57
2023/08/14 07:58:48;;;;;;;4.43;1.77;;;;;;;20.87;67.52;101658.94;7393175;19;20025;-57
2023/08/14 08:01:15;;;;;;;5.90;1.70;;;;;;;20.94;67.23;101645.66;7390110;19;20015;-57
2023/08/14 08:03:43;;;;;;;7.45;2.03;;;;;;;20.99;67.63;101651.44;7389448;19;20022;-57
2023/08/14 08:06:11;;;;;;;6.18;1.63;;;;;;;21.07;67.42;101653.31;7389490;19;20086;-57
2023/08/14 08:08:38;;;;;;;8.60;2.08;;;;;;;21.15;67.00;101662.28;7390063;19;20027;-56
2023/08/14 08:11:08;;;;;;;7.80;1.77;;;;;;;21.24;67.85;101657.78;7390219;19;20019;-58
2023/08/14 08:13:36;;;;;;;8.15;1.83;;;;;;;21.27;66.07;101660.16;7388806;19;20015;-57
2023/08/14 08:16:03;;;;;;;7.60;1.52;;;;;;;21.31;65.39;101648.06;7389278;19;20018;-57
2023/08/14 08:18:30;;;;;;;10.65;2.47;;;;;;;21.35;65.43;101646.75;7390231;19;20015;-58
2023/08/14 08:20:58;;;;;;;6.80;1.92;;;;;;;21.44;66.24;101646.78;7390796;19;20074;-59
2023/08/14 08:23:25;;;;;;;6.82;1.90;;;;;;;21.51;65.32;101645.13;7394418;19;20023;-59
2023/08/14 08:25:52;;;;;;;9.90;2.00;;;;;;;21.56;65.35;101649.03;7395124;19;20021;-59
2023/08/14 08:28:20;;;;;;;10.68;2.17;;;;;;;21.62;65.42;101652.91;7397440;19;20019;-59
2023/08/14 08:30:47;;;;;;;11.32;1.90;;;;;;;21.63;65.05;101651.91;7397620;19;20078;-59
2023/08/14 08:33:14;;;;;;;7.22;1.85;;;;;;;21.67;64.63;101655.97;7394471;19;20014;-59
2023/08/14 08:35:42;;;;;;;8.60;1.70;;;;;;;21.68;63.77;101660.38;7394973;19;20019;-59
2023/08/14 08:38:09;;;;;;;9.63;1.80;;;;;;;21.68;63.60;101656.84;7395019;19;20028;-59
2023/08/14 08:40:41;;;;;;;10.32;1.98;;;;;;;21.69;63.37;101655.81;7397211;19;20078;-59
2023/08/14 08:43:09;;;;;;;7.47;1.70;;;;;;;21.65;63.67;101656.13;7394369;19;20018;-59
2023/08/14 08:45:41;;;;;;;8.73;1.83;;;;;;;21.66;63.47;101657.81;7394722;19;20021;-58
2023/08/14 08:48:08;;;;;;;7.50;2.00;;;;;;;21.62;64.49;101658.31;7396471;19;20056;-59
2023/08/14 08:50:36;;;;;;;9.07;1.92;;;;;;;21.60;64.74;101663.03;7395208;19;20022;-59
2023/08/14 08:53:04;;;;;;;6.82;2.08;;;;;;;21.58;64.72;101656.94;7393632;19;20047;-60
2023/08/14 08:55:32;;;;;;;6.05;1.77;;;;;;;21.56;65.25;101662.53;7395956;19;20024;-60
2023/08/14 08:58:01;;;;;;;6.82;1.90;;;;;;;21.60;66.13;101661.19;7397191;19;20023;-58
2023/08/14 09:00:28;;;;;;;6.90;1.80;;;;;;;21.62;65.24;101653.75;7394756;19;20026;-58
2023/08/14 09:02:56;;;;;;;7.10;1.75;;;;;;;21.61;64.14;101649.38;7394699;19;20342;-62
2023/08/14 09:05:24;;;;;;;7.63;1.90;;;;;;;21.63;63.35;101647.34;7395772;19;20039;-59
2023/08/14 09:07:51;;;;;;;5.18;1.90;;;;;;;21.71;64.62;101640.31;7395988;19;20019;-59
2023/08/14 09:10:19;;;;;;;9.70;2.05;;;;;;;21.80;64.51;101633.94;7395879;19;20025;-59
2023/08/14 09:12:46;;;;;;;7.07;2.15;;;;;;;21.84;63.21;101633.44;7394029;19;20018;-59
2023/08/14 09:15:14;;;;;;;4.25;1.38;;;;;;;21.88;61.99;101633.94;7395392;19;20014;-59
2023/08/14 09:17:42;;;;;;;7.28;1.67;;;;;;;21.81;61.71;101630.22;7395122;19;20010;-59
2023/08/14 09:20:14;;;;;;;8.05;2.03;;;;;;;21.79;62.88;101622.31;7395613;19;20022;-59
2023/08/14 09:22:57;;;;;;;7.68;2.08;;;;;;;21.83;63.44;101625.53;7393842;19;20512;-59
2023/08/14 09:25:26;;;;;;;5.65;1.67;;;;;;;21.97;62.56;101616.75;7395077;19;20040;-59
2023/08/14 09:27:55;;;;;;;5.38;1.70;;;;;;;22.11;61.75;101615.28;7395085;19;20022;-59
2023/08/14 09:30:26;;;;;;;7.13;1.85;;;;;;;22.22;61.77;101612.28;7393152;19;20034;-59
2023/08/14 09:32:55;;;;;;;9.00;2.22;;;;;;;22.27;61.86;101598.28;7390211;19;20530;-60
2023/08/14 09:35:23;;;;;;;6.85;2.17;;;;;;;22.36;62.62;101583.75;7395256;19;20082;-60
2023/08/14 09:37:50;;;;;;;6.78;1.77;;;;;;;22.51;62.33;101582.06;7394500;19;20025;-60
2023/08/14 09:40:17;;;;;;;7.28;2.00;;;;;;;22.54;62.80;101587.09;7394807;19;20026;-60
2023/08/14 09:42:48;;;;;;;7.15;2.33;;;;;;;22.53;63.33;101590.81;7392599;19;20032;-59
2023/08/14 09:45:17;;;;;;;7.50;2.40;;;;;;;22.48;63.66;101590.50;7394340;19;20039;-59
2023/08/14 09:47:46;;;;;;;5.10;2.05;;;;;;;22.48;64.04;101582.41;7394156;19;20019;-59
2023/08/14 09:50:19;;;;;;;6.83;2.30;;;;;;;22.55;64.24;101586.13;7395453;19;20023;-59
2023/08/14 09:52:47;;;;;;;6.70;2.00;;;;;;;22.60;64.69;101588.28;7392935;19;20015;-59
2023/08/14 09:55:16;;;;;;;7.57;2.63;;;;;;;22.65;64.53;101585.06;7394098;19;20043;-59
2023/08/14 09:57:45;;;;;;;7.50;2.88;;;;;;;22.52;64.98;101577.50;7393726;19;20060;-59
2023/08/14 10:00:13;;;;;;;9.77;3.05;;;;;;;22.42;65.81;101593.03;7394554;19;20019;-59
2023/08/14 10:02:42;;;;;;;9.90;2.90;;;;;;;22.32;66.03;101585.97;7392502;19;20011;-59
2023/08/14 10:05:10;;;;;;;7.53;2.92;;;;;;;22.21;66.97;101586.31;7394906;19;20018;-59
2023/08/14 10:07:39;;;;;;;6.78;2.75;;;;;;;22.16;67.55;101593.22;7393911;19;20086;-59
2023/08/14 10:10:08;;;;;;;8.90;3.20;;;;;;;22.18;67.21;101589.34;7393909;19;20077;-59
2023/08/14 10:12:55;;;;;;;9.95;3.00;;;;;;;22.28;67.40;101591.84;7392016;19;20035;-59
2023/08/14 10:15:31;;;;;;;7.10;3.08;;;;;;;22.29;66.87;101588.16;7393339;19;20022;-59
2023/08/14 10:18:09;;;;;;;9.60;3.00;;;;;;;22.35;66.70;101593.69;7394248;19;20024;-58
2023/08/14 10:20:38;;;;;;;9.32;3.17;;;;;;;22.35;67.46;101592.88;7393383;19;20025;-59
2023/08/14 10:23:10;;;;;;;9.23;3.10;;;;;;;22.35;67.08;101599.09;7392026;19;20018;-59
2023/08/14 10:25:38;;;;;;;9.40;3.15;;;;;;;22.37;66.08;101598.94;7391478;19;20022;-59
2023/08/14 10:28:09;;;;;;;8.82;3.30;;;;;;;22.40;64.79;101601.31;7393639;19;20480;-59
2023/08/14 10:30:38;;;;;;;7.40;2.95;;;;;;;22.46;65.78;101589.81;7391568;19;20039;-59
2023/08/14 10:33:06;;;;;;;9.20;2.70;;;;;;;22.51;66.23;101598.28;7392298;19;20357;-58
2023/08/14 10:35:51;;;;;;;6.95;2.78;;;;;;;22.63;65.22;101602.28;7392256;19;20019;-58
2023/08/14 10:38:18;;;;;;;7.15;2.58;;;;;;;22.60;66.03;101605.31;7392788;19;20018;-59
2023/08/14 10:41:03;;;;;;;8.35;2.90;;;;;;;22.62;65.83;101603.28;7391556;19;20078;-59
2023/08/14 10:43:31;;;;;;;9.90;2.78;;;;;;;22.70;64.65;101604.28;7389104;19;20022;-59
2023/08/14 10:45:58;;;;;;;7.97;2.67;;;;;;;22.72;64.35;101602.28;7391112;19;20019;-58
2023/08/14 10:48:26;;;;;;;6.72;2.53;;;;;;;22.79;63.55;101592.47;7393008;19;20042;-59
2023/08/14 10:50:59;;;;;;;8.05;2.53;;;;;;;22.83;63.68;101591.09;7390958;19;20018;-61
2023/08/14 10:53:29;;;;;;;6.75;2.40;;;;;;;22.77;63.21;101598.03;7391186;19;20509;-59
2023/08/14 10:55:58;;;;;;;8.00;2.47;;;;;;;22.88;62.53;101594.13;7392038;19;20042;-59
2023/08/14 10:58:31;;;;;;;8.05;2.67;;;;;;;22.94;62.04;101595.34;7393125;19;20043;-59
2023/08/14 11:01:08;;;;;;;;;;;;;;;22.76;60.69;101595.50;7393147;19;20424;-59
2023/08/14 11:03:55;;;;;;;9.38;3.08;;;;;;;22.85;61.96;101580.97;7390787;19;19919;-58
2023/08/14 11:06:27;;;;;;;9.48;3.00;;;;;;;22.97;62.35;101585.03;7391218;19;20014;-58
2023/08/14 11:09:04;;;;;;;8.63;2.35;;;;;;;23.18;61.52;101579.03;7391538;19;20018;-58
2023/08/14 11:11:32;;;;;;;7.18;2.67;;;;;;;23.13;62.09;101569.78;7391291;19;20022;-58
2023/08/14 11:13:59;;;;;;;9.15;2.65;;;;;;;23.16;61.18;101570.25;7391871;19;20022;-59
2023/08/14 11:16:27;;;;;;;8.85;2.80;;;;;;;23.22;60.33;101572.25;7389724;19;20070;-58
2023/08/14 11:18:56;;;;;;;9.25;2.55;;;;;;;23.23;60.15;101563.09;7391515;19;20022;-56
2023/08/14 11:21:25;;;;;;;7.75;2.50;;;;;;;23.28;61.14;101568.84;7389969;19;20015;-57
2023/08/14 11:23:58;;;;;;;10.02;2.70;;;;;;;23.49;60.89;101559.25;7390232;19;20022;-60
2023/08/14 11:26:30;;;;;;;9.48;2.38;;;;;;;23.53;61.25;101549.78;7390650;19;20018;-60
2023/08/14 11:28:57;;;;;;;6.35;2.40;;;;;;;23.51;61.02;101546.44;7390659;19;20011;-58
2023/08/14 11:31:24;;;;;;;6.55;2.83;;;;;;;23.53;60.95;101537.09;7389338;19;20018;-58
2023/08/14 11:34:01;;;;;;;9.45;2.70;;;;;;;23.66;60.20;101538.34;7391572;19;20029;-60